Seymour Johnson Air Force Base Goldsboro US
ICAO: KGSB
IATA: GSB
Category: Large
Scheduled Services: No

Elevation: 109 ft
TransAlt. 18000 ft.

Airport Communications:
APP:119.7
ATIS:31.762
CLNC DEL:128.025
DEP:119.7
GND:138.1
ACC SOF:37.61
PMSV METRO:32.392
916TH COMD POST:31.1
4FW COMD POST:31.1
PTD:37.22
TWR:126.25

KGSB Zoom In..

Runways:

(A) RW 08 length 11760 ft width 300 ft
ILS 109.30 / hdg 81

(B) RW 26 length 11760 ft width 300 ft
ILS 109.90 / hdg 261

Location; KGSB
Day. 14 / Time. 13.56 Zulu
* Altimeter: 29.99
* Temperature: 28° c. 82.4°f.
* Wind from: 240° Speed 03 kn.
Dewpoint: 23° c.
Visibility: 10 Statute Miles.
Clouds: Clear (automated report).

KGSB 141356Z AUTO 24003KT 10SM CLR 28/23 A2999 RMK AO2 SLP158 T02760229 $


Wind From 240°
Speed 03 kn.

 
 
jpsmedia.com for Web Design worldairports.se 2018   terms of use